createdAt,value
2018-12-24T00:03:50.694Z,6.93
2018-12-24T00:09:13.090Z,6.90
2018-12-24T00:14:29.867Z,6.89
2018-12-24T00:19:52.678Z,6.84
2018-12-24T00:25:08.305Z,6.80
2018-12-24T00:30:31.299Z,6.66
2018-12-24T00:35:34.937Z,6.46
2018-12-24T00:40:57.782Z,6.31
2018-12-24T00:46:12.995Z,6.20
2018-12-24T00:51:28.315Z,6.06
2018-12-24T00:56:51.257Z,5.94
2018-12-24T01:02:06.596Z,5.88
2018-12-24T01:07:29.501Z,5.82
2018-12-24T01:12:45.406Z,5.84
2018-12-24T01:18:08.348Z,5.76
2018-12-24T01:23:24.011Z,5.71
2018-12-24T01:28:47.171Z,5.63
2018-12-24T01:34:02.389Z,5.62
2018-12-24T01:39:24.967Z,5.62
2018-12-24T01:44:40.818Z,5.58
2018-12-24T01:50:03.404Z,5.54
2018-12-24T01:55:06.362Z,5.54
2018-12-24T02:00:28.781Z,5.53
2018-12-24T02:05:44.765Z,5.48
2018-12-24T02:11:07.404Z,5.47
2018-12-24T02:16:22.567Z,5.44
2018-12-24T02:21:38.164Z,5.38
2018-12-24T02:27:01.247Z,5.36
2018-12-24T02:32:16.747Z,5.26
2018-12-24T02:37:39.319Z,5.26
2018-12-24T02:42:55.221Z,5.19
2018-12-24T02:48:17.636Z,5.20
2018-12-24T02:53:33.665Z,5.17
2018-12-24T02:58:49.770Z,5.12
2018-12-24T03:04:05.916Z,5.07
2018-12-24T03:09:22.397Z,4.92
2018-12-24T03:14:38.166Z,4.99
2018-12-24T03:20:00.496Z,5.00
2018-12-24T03:25:15.952Z,5.07
2018-12-24T03:30:38.618Z,5.04
2018-12-24T03:35:57.536Z,5.06
2018-12-24T03:41:22.912Z,5.07
2018-12-24T03:46:38.224Z,5.07
2018-12-24T03:52:00.864Z,5.00
2018-12-24T03:57:16.882Z,4.99
2018-12-24T04:02:39.807Z,4.92
2018-12-24T04:07:55.977Z,4.88
2018-12-24T04:13:22.685Z,4.86
2018-12-24T04:18:57.234Z,4.64
2018-12-24T04:24:19.690Z,4.58
2018-12-24T04:29:35.085Z,4.46
2018-12-24T04:34:58.318Z,4.29
2018-12-24T04:40:14.555Z,4.18
2018-12-24T04:45:37.660Z,4.19
2018-12-24T04:50:56.027Z,4.17
2018-12-24T04:56:12.192Z,4.13
2018-12-24T05:01:28.521Z,4.15
2018-12-24T05:06:51.032Z,4.14
2018-12-24T05:12:06.600Z,4.16
2018-12-24T05:17:29.332Z,4.14
2018-12-24T05:22:45.172Z,4.10
2018-12-24T05:28:07.837Z,4.08
2018-12-24T05:33:24.350Z,4.11
2018-12-24T05:38:47.326Z,4.12
2018-12-24T05:44:03.005Z,4.02
2018-12-24T05:49:26.243Z,4.07
2018-12-24T05:54:41.416Z,4.02
2018-12-24T05:59:57.262Z,3.98
2018-12-24T06:05:12.665Z,4.01
2018-12-24T06:10:35.583Z,3.87
2018-12-24T06:15:51.168Z,3.76
2018-12-24T06:21:13.490Z,3.76
2018-12-24T06:26:28.903Z,3.78
2018-12-24T06:31:51.284Z,3.78
2018-12-24T06:37:06.872Z,3.75
2018-12-24T06:42:29.795Z,3.62
2018-12-24T06:47:46.221Z,3.47
2018-12-24T06:53:09.389Z,3.38
2018-12-24T06:58:24.513Z,3.34
2018-12-24T07:03:47.166Z,3.32
2018-12-24T07:09:04.466Z,3.32
2018-12-24T07:14:27.833Z,3.30
2018-12-24T07:19:43.437Z,3.21
2018-12-24T07:25:05.801Z,3.13
2018-12-24T07:30:21.610Z,3.13
2018-12-24T07:35:44.094Z,3.15
2018-12-24T07:40:59.805Z,3.19
2018-12-24T07:46:22.237Z,3.14
2018-12-24T07:51:38.561Z,3.15
2018-12-24T07:56:54.947Z,3.10
2018-12-24T08:02:11.150Z,3.02
2018-12-24T08:07:14.667Z,2.85
2018-12-24T08:12:30.288Z,2.86
2018-12-24T08:17:53.167Z,2.82
2018-12-24T08:23:09.265Z,2.81
2018-12-24T08:28:31.927Z,2.82
2018-12-24T08:33:48.418Z,2.69
2018-12-24T08:39:11.402Z,2.65
2018-12-24T08:44:26.904Z,2.65
2018-12-24T08:50:07.270Z,2.81
2018-12-24T08:55:09.726Z,2.80
2018-12-24T09:00:12.106Z,2.66
2018-12-24T09:05:14.431Z,2.65
2018-12-24T09:10:16.785Z,2.63
2018-12-24T09:15:19.014Z,2.71
2018-12-24T09:20:21.264Z,2.72
2018-12-24T09:25:23.741Z,2.77
2018-12-24T09:30:27.338Z,2.83
2018-12-24T09:35:30.133Z,2.83
2018-12-24T09:40:32.352Z,2.86
2018-12-24T09:45:35.360Z,2.85
2018-12-24T09:50:37.553Z,2.90
2018-12-24T09:55:40.285Z,2.94
2018-12-24T10:00:42.600Z,2.99
2018-12-24T10:05:45.550Z,3.00
2018-12-24T10:10:47.776Z,3.02
2018-12-24T10:15:51.022Z,3.04
2018-12-24T10:20:53.655Z,3.05
2018-12-24T10:25:55.866Z,3.06
2018-12-24T10:30:58.733Z,3.04
2018-12-24T10:36:01.418Z,3.04
2018-12-24T10:41:15.017Z,3.03
2018-12-24T10:46:17.545Z,3.01
2018-12-24T10:51:20.350Z,2.96
2018-12-24T10:56:22.563Z,2.94
2018-12-24T11:01:25.268Z,2.96
2018-12-24T11:06:28.387Z,2.98
2018-12-24T11:11:32.158Z,2.92
2018-12-24T11:16:34.388Z,2.90
2018-12-24T11:21:36.646Z,2.91
2018-12-24T11:26:39.478Z,2.88
2018-12-24T11:31:41.638Z,2.87
2018-12-24T11:36:44.067Z,2.86
2018-12-24T11:41:46.346Z,2.84
2018-12-24T11:46:48.916Z,2.87
2018-12-24T11:51:52.037Z,2.94
2018-12-24T11:56:54.580Z,2.95
2018-12-24T12:01:57.549Z,2.94
2018-12-24T12:07:00.039Z,2.93
2018-12-24T12:12:03.173Z,2.95
2018-12-24T12:17:05.580Z,2.98
2018-12-24T12:22:07.943Z,2.99
2018-12-24T12:27:10.378Z,2.95
2018-12-24T12:32:12.620Z,2.99
2018-12-24T12:37:15.099Z,3.01
2018-12-24T12:42:17.723Z,3.07
2018-12-24T12:47:33.263Z,3.11
2018-12-24T12:52:49.260Z,3.07
2018-12-24T12:58:11.581Z,3.08
2018-12-24T13:03:15.306Z,3.10
2018-12-24T13:08:37.622Z,3.10
2018-12-24T13:13:52.939Z,3.13
2018-12-24T13:19:15.812Z,3.12
2018-12-24T13:24:31.301Z,3.07
2018-12-24T13:29:53.991Z,3.11
2018-12-24T13:35:09.758Z,3.10
2018-12-24T13:40:32.445Z,3.11
2018-12-24T13:45:51.184Z,3.07
2018-12-24T13:51:13.796Z,3.13
2018-12-24T13:56:29.668Z,3.15
2018-12-24T14:01:52.507Z,3.15
2018-12-24T14:07:08.019Z,3.19
2018-12-24T14:12:30.470Z,3.17
2018-12-24T14:17:46.792Z,3.21
2018-12-24T14:23:09.199Z,3.19
2018-12-24T14:28:25.322Z,3.15
2018-12-24T14:33:47.728Z,3.17
2018-12-24T14:38:50.818Z,3.19
2018-12-24T14:43:53.078Z,3.21
2018-12-24T14:49:08.798Z,3.17
2018-12-24T14:54:24.133Z,3.12
2018-12-24T14:59:26.459Z,3.19
2018-12-24T15:04:50.018Z,3.16
2018-12-24T15:10:12.976Z,3.15
2018-12-24T15:15:35.211Z,3.14
2018-12-24T15:20:50.605Z,3.16
2018-12-24T15:26:12.585Z,3.16
2018-12-24T15:31:27.947Z,3.19
2018-12-24T15:36:50.423Z,3.10
2018-12-24T15:42:05.586Z,3.02
2018-12-24T15:47:27.560Z,2.99
2018-12-24T15:52:43.421Z,2.98
2018-12-24T15:58:05.786Z,2.89
2018-12-24T16:03:20.813Z,2.98
2018-12-24T16:08:43.193Z,2.99
2018-12-24T16:13:58.936Z,2.95
2018-12-24T16:19:21.131Z,2.99
2018-12-24T16:24:36.720Z,2.90
2018-12-24T16:29:58.858Z,2.84
2018-12-24T16:35:14.371Z,2.83
2018-12-24T16:40:36.409Z,2.87
2018-12-24T16:45:51.786Z,2.87
2018-12-24T16:51:14.585Z,2.88
2018-12-24T16:56:30.628Z,2.79
2018-12-24T17:01:53.359Z,2.83
2018-12-24T17:07:09.219Z,2.83
2018-12-24T17:12:31.436Z,2.83
2018-12-24T17:17:46.903Z,2.82
2018-12-24T17:23:09.090Z,2.83
2018-12-24T17:28:43.871Z,2.87
2018-12-24T17:34:06.470Z,2.86
2018-12-24T17:39:22.310Z,2.82
2018-12-24T17:44:44.808Z,2.83
2018-12-24T17:50:00.353Z,2.83
2018-12-24T17:55:23.300Z,2.83
2018-12-24T18:00:39.205Z,2.78
2018-12-24T18:06:01.696Z,2.74
2018-12-24T18:11:17.167Z,2.70
2018-12-24T18:16:39.245Z,2.65
2018-12-24T18:21:54.431Z,2.58
2018-12-24T18:27:16.353Z,2.47
2018-12-24T18:32:31.979Z,2.51
2018-12-24T18:37:54.129Z,2.59
2018-12-24T18:43:09.806Z,2.65
2018-12-24T18:48:32.258Z,2.63
2018-12-24T18:53:47.785Z,2.63
2018-12-24T18:59:10.622Z,2.68
2018-12-24T19:04:26.157Z,2.63
2018-12-24T19:09:48.065Z,2.66
2018-12-24T19:15:04.186Z,2.66
2018-12-24T19:20:20.059Z,2.72
2018-12-24T19:25:34.946Z,2.75
2018-12-24T19:30:56.892Z,2.75
2018-12-24T19:36:12.627Z,2.70
2018-12-24T19:41:34.978Z,2.78
2018-12-24T19:46:50.291Z,2.81
2018-12-24T19:52:12.445Z,2.82
2018-12-24T19:57:14.660Z,2.83
2018-12-24T20:02:30.804Z,2.83
2018-12-24T20:07:47.001Z,2.88
2018-12-24T20:13:09.414Z,2.84
2018-12-24T20:18:24.962Z,2.83
2018-12-24T20:23:47.684Z,2.89
2018-12-24T20:29:03.016Z,2.87
2018-12-24T20:34:25.195Z,2.91
2018-12-24T20:39:43.689Z,2.96
2018-12-24T20:45:05.984Z,2.94
2018-12-24T20:50:22.898Z,2.96
2018-12-24T20:55:45.047Z,3.05
2018-12-24T21:01:00.298Z,3.09
2018-12-24T21:06:15.838Z,3.07
2018-12-24T21:11:34.754Z,3.14
